Time;durP1;ratioP1;P1;durP2;ratioP2;P2;SDS_P1;SDS_P2;PMS_P1;PMS_P2;Temp;Humidity;BMP_temperature;BMP_pressure;BME280_temperature;BME280_humidity;BME280_pressure;Samples;Min_cycle;Max_cycle;Signal;HPM_P1;HPM_P2
2021/07/30 00:00:54;;;;;;;7.73;4.80;;;;;;;;;;727412;192;918476;-68
2021/07/30 00:03:20;;;;;;;7.23;4.50;;;;;;;;;;728165;191;918842;-68
2021/07/30 00:05:45;;;;;;;12.37;4.07;;;;;;;;;;731253;191;919166;-67
2021/07/30 00:08:11;;;;;;;9.47;4.33;;;;;;;;;;727429;192;919295;-68
2021/07/30 00:10:37;;;;;;;13.17;4.90;;;;;;;;;;726442;192;919544;-68
2021/07/30 00:13:03;;;;;;;6.00;5.03;;;;;;;;;;733199;192;919673;-68
2021/07/30 00:15:29;;;;;;;6.93;4.33;;;;;;;;;;726919;192;918480;-70
2021/07/30 00:17:55;;;;;;;6.93;4.03;;;;;;;;;;727220;192;919527;-68
2021/07/30 00:20:20;;;;;;;8.23;4.73;;;;;;;;;;727284;192;918920;-68
2021/07/30 00:22:46;;;;;;;6.83;5.13;;;;;;;;;;730386;191;919384;-68
2021/07/30 00:25:13;;;;;;;6.70;4.40;;;;;;;;;;725226;191;919435;-68
2021/07/30 00:27:38;;;;;;;10.23;5.90;;;;;;;;;;725294;192;918996;-67
2021/07/30 00:30:05;;;;;;;11.67;6.20;;;;;;;;;;731019;192;1021388;-68
2021/07/30 00:32:31;;;;;;;13.77;5.70;;;;;;;;;;726324;192;919655;-68
2021/07/30 00:34:56;;;;;;;7.53;5.17;;;;;;;;;;724724;193;918999;-68
2021/07/30 00:37:22;;;;;;;10.70;5.17;;;;;;;;;;730541;192;919666;-69
2021/07/30 00:39:48;;;;;;;10.87;6.47;;;;;;;;;;726257;192;919362;-67
2021/07/30 00:42:14;;;;;;;14.50;5.45;;;;;;;;;;725552;192;1021534;-67
2021/07/30 00:44:40;;;;;;;10.33;5.77;;;;;;;;;;723345;191;920406;-67
2021/07/30 00:47:06;;;;;;;8.90;6.30;;;;;;;;;;725877;190;918960;-67
2021/07/30 00:49:32;;;;;;;13.53;7.53;;;;;;;;;;725968;191;919676;-67
2021/07/30 00:51:58;;;;;;;14.80;5.97;;;;;;;;;;726001;190;919665;-68
2021/07/30 00:54:24;;;;;;;8.60;5.03;;;;;;;;;;732585;191;943257;-68
2021/07/30 00:56:50;;;;;;;13.00;5.97;;;;;;;;;;729032;191;919043;-67
2021/07/30 00:59:16;;;;;;;15.10;5.30;;;;;;;;;;728706;190;919594;-69
2021/07/30 01:01:41;;;;;;;13.43;5.30;;;;;;;;;;729856;192;919136;-68
2021/07/30 01:04:07;;;;;;;13.63;6.07;;;;;;;;;;725770;190;918704;-68
2021/07/30 01:06:33;;;;;;;9.33;6.17;;;;;;;;;;729750;190;921278;-68
2021/07/30 01:08:59;;;;;;;9.20;6.00;;;;;;;;;;733731;191;919636;-69
2021/07/30 01:11:25;;;;;;;13.07;6.00;;;;;;;;;;726032;191;921511;-68
2021/07/30 01:13:51;;;;;;;17.57;7.50;;;;;;;;;;728196;191;919552;-68
2021/07/30 01:16:17;;;;;;;16.30;6.00;;;;;;;;;;727582;192;919216;-68
2021/07/30 01:18:42;;;;;;;21.00;5.73;;;;;;;;;;731900;190;918518;-68
2021/07/30 01:21:08;;;;;;;13.97;5.47;;;;;;;;;;726411;191;919444;-68
2021/07/30 01:23:34;;;;;;;16.23;5.60;;;;;;;;;;727795;191;915332;-68
2021/07/30 01:26:00;;;;;;;15.83;6.03;;;;;;;;;;732938;190;914032;-68
2021/07/30 01:28:31;;;;;;;8.53;4.80;;;;;;;;;;727722;192;915666;-68
2021/07/30 01:30:56;;;;;;;8.60;4.37;;;;;;;;;;728733;192;915634;-69
2021/07/30 01:33:22;;;;;;;8.50;5.00;;;;;;;;;;725858;192;919146;-68
2021/07/30 01:35:48;;;;;;;19.07;5.50;;;;;;;;;;733449;190;919882;-68
2021/07/30 01:38:14;;;;;;;13.97;5.20;;;;;;;;;;726136;192;919688;-71
2021/07/30 01:40:40;;;;;;;28.60;5.07;;;;;;;;;;723703;191;919539;-69
2021/07/30 01:43:06;;;;;;;8.63;5.33;;;;;;;;;;731313;191;919124;-69
2021/07/30 01:45:31;;;;;;;11.30;4.90;;;;;;;;;;726554;192;918495;-69
2021/07/30 01:47:57;;;;;;;70.45;9.50;;;;;;;;;;726451;191;1028010;-70
2021/07/30 01:50:23;;;;;;;21.07;6.60;;;;;;;;;;731926;193;918221;-70
2021/07/30 01:52:49;;;;;;;10.07;5.50;;;;;;;;;;727599;192;918642;-69
2021/07/30 01:55:15;;;;;;;12.10;5.07;;;;;;;;;;725659;192;919672;-71
2021/07/30 01:57:41;;;;;;;15.57;4.80;;;;;;;;;;730588;192;918502;-70
2021/07/30 02:00:07;;;;;;;14.83;5.80;;;;;;;;;;725546;192;919909;-69
2021/07/30 02:02:33;;;;;;;8.20;4.97;;;;;;;;;;726725;191;917628;-70
2021/07/30 02:04:59;;;;;;;14.60;6.10;;;;;;;;;;726709;190;919814;-70
2021/07/30 02:07:24;;;;;;;15.83;5.97;;;;;;;;;;733904;191;919326;-70
2021/07/30 02:09:50;;;;;;;19.57;7.33;;;;;;;;;;725583;192;1021427;-70
2021/07/30 02:12:16;;;;;;;17.20;7.00;;;;;;;;;;724661;191;919501;-71
2021/07/30 02:14:42;;;;;;;16.70;6.40;;;;;;;;;;733553;191;919173;-70
2021/07/30 02:17:08;;;;;;;10.87;6.63;;;;;;;;;;726990;192;919236;-70
2021/07/30 02:19:34;;;;;;;16.63;6.57;;;;;;;;;;727728;190;919017;-70
2021/07/30 02:21:59;;;;;;;28.50;6.60;;;;;;;;;;732243;192;919016;-70
2021/07/30 02:24:25;;;;;;;13.40;6.50;;;;;;;;;;726939;192;1021199;-70
2021/07/30 02:26:53;;;;;;;25.57;6.13;;;;;;;;;;724624;193;920435;-70
2021/07/30 02:29:17;;;;;;;15.50;6.65;;;;;;;;;;723922;192;922674;-69
2021/07/30 02:31:43;;;;;;;14.93;7.50;;;;;;;;;;728164;192;1019769;-71
2021/07/30 02:34:09;;;;;;;17.67;8.50;;;;;;;;;;726138;192;919332;-69
2021/07/30 02:36:34;;;;;;;31.33;6.93;;;;;;;;;;724683;193;917423;-69
2021/07/30 02:39:00;;;;;;;16.63;6.73;;;;;;;;;;733109;192;919174;-69
2021/07/30 02:41:26;;;;;;;15.07;6.10;;;;;;;;;;727472;192;919983;-69
2021/07/30 02:43:52;;;;;;;28.20;6.67;;;;;;;;;;726200;191;932440;-69
2021/07/30 02:46:18;;;;;;;16.50;6.63;;;;;;;;;;731309;191;918899;-69
2021/07/30 02:48:44;;;;;;;21.13;7.40;;;;;;;;;;728550;192;920623;-69
2021/07/30 02:51:09;;;;;;;15.27;6.00;;;;;;;;;;724253;191;919592;-71
2021/07/30 02:53:35;;;;;;;15.30;5.63;;;;;;;;;;730821;192;918050;-69
2021/07/30 02:56:01;;;;;;;19.73;6.40;;;;;;;;;;715523;192;957702;-70
2021/07/30 02:58:27;;;;;;;30.97;7.27;;;;;;;;;;724291;191;915592;-70
2021/07/30 03:00:53;;;;;;;28.83;9.20;;;;;;;;;;728739;192;914815;-69
2021/07/30 03:03:19;;;;;;;19.03;7.20;;;;;;;;;;731983;191;914361;-69
2021/07/30 03:05:46;;;;;;;23.63;8.03;;;;;;;;;;726492;191;923387;-69
2021/07/30 03:08:11;;;;;;;14.93;7.00;;;;;;;;;;725864;191;916239;-70
2021/07/30 03:10:37;;;;;;;16.63;6.50;;;;;;;;;;730832;191;914111;-69
2021/07/30 03:13:03;;;;;;;19.00;8.27;;;;;;;;;;726149;191;919291;-69
2021/07/30 03:15:29;;;;;;;17.13;8.83;;;;;;;;;;727309;192;916304;-69
2021/07/30 03:17:55;;;;;;;31.87;8.15;;;;;;;;;;734421;192;916869;-69
2021/07/30 03:20:20;;;;;;;17.60;7.30;;;;;;;;;;728261;192;916179;-69
2021/07/30 03:22:46;;;;;;;36.17;9.57;;;;;;;;;;726720;191;913901;-70
2021/07/30 03:25:12;;;;;;;19.03;8.10;;;;;;;;;;727617;192;917136;-69
2021/07/30 03:27:38;;;;;;;21.00;8.10;;;;;;;;;;735914;189;905466;-69
2021/07/30 03:30:04;;;;;;;16.43;8.00;;;;;;;;;;726456;191;916220;-69
2021/07/30 03:32:30;;;;;;;16.00;8.43;;;;;;;;;;726962;191;916689;-69
2021/07/30 03:34:56;;;;;;;13.80;8.43;;;;;;;;;;732121;191;915783;-70
2021/07/30 03:37:22;;;;;;;12.43;7.23;;;;;;;;;;727494;190;911391;-71
2021/07/30 03:39:48;;;;;;;18.03;9.90;;;;;;;;;;726285;192;1017783;-70
2021/07/30 03:42:14;;;;;;;23.30;8.43;;;;;;;;;;732685;191;919160;-69
2021/07/30 03:44:40;;;;;;;15.10;7.70;;;;;;;;;;728510;190;919313;-69
2021/07/30 03:47:05;;;;;;;17.40;8.17;;;;;;;;;;726665;191;918416;-69
2021/07/30 03:49:31;;;;;;;21.80;8.50;;;;;;;;;;730912;190;919306;-69
2021/07/30 03:51:57;;;;;;;18.50;8.80;;;;;;;;;;726013;192;918555;-69
2021/07/30 03:54:23;;;;;;;17.30;7.37;;;;;;;;;;728174;191;919757;-69
2021/07/30 03:56:49;;;;;;;26.17;7.73;;;;;;;;;;728291;191;919227;-69
2021/07/30 03:59:15;;;;;;;16.10;7.67;;;;;;;;;;730827;193;925183;-69
2021/07/30 04:01:47;;;;;;;22.80;7.00;;;;;;;;;;724293;192;919062;-69
2021/07/30 04:04:07;;;;;;;18.40;7.60;;;;;;;;;;725858;192;919613;-69
2021/07/30 04:06:33;;;;;;;16.00;7.40;;;;;;;;;;731567;191;916281;-69
2021/07/30 04:09:01;;;;;;;36.67;10.50;;;;;;;;;;723825;192;920508;-69
2021/07/30 04:11:24;;;;;;;17.10;8.10;;;;;;;;;;725199;192;921009;-69
2021/07/30 04:13:51;;;;;;;23.10;9.80;;;;;;;;;;731015;192;919678;-69
2021/07/30 04:16:16;;;;;;;24.47;9.57;;;;;;;;;;726593;192;919107;-69
2021/07/30 04:18:42;;;;;;;18.13;8.40;;;;;;;;;;727994;192;920584;-71
2021/07/30 04:21:08;;;;;;;18.63;9.33;;;;;;;;;;725700;192;917028;-69
2021/07/30 04:23:34;;;;;;;24.35;8.70;;;;;;;;;;729780;193;916078;-69
2021/07/30 04:25:59;;;;;;;14.83;9.13;;;;;;;;;;724795;192;915866;-69
2021/07/30 04:28:25;;;;;;;23.35;11.57;;;;;;;;;;730708;189;916117;-70
2021/07/30 04:30:51;;;;;;;14.60;9.77;;;;;;;;;;732204;191;914856;-69
2021/07/30 04:33:17;;;;;;;20.03;9.87;;;;;;;;;;727199;190;920026;-70
2021/07/30 04:35:43;;;;;;;18.37;10.07;;;;;;;;;;725888;190;918738;-69
2021/07/30 04:38:09;;;;;;;17.13;10.10;;;;;;;;;;729872;192;919682;-69
2021/07/30 04:40:35;;;;;;;19.95;11.55;;;;;;;;;;727263;191;919010;-69
2021/07/30 04:43:00;;;;;;;21.80;11.25;;;;;;;;;;728996;191;921560;-69
2021/07/30 04:45:26;;;;;;;18.43;11.20;;;;;;;;;;726394;192;919481;-67
2021/07/30 04:47:52;;;;;;;25.37;12.70;;;;;;;;;;733746;188;918635;-69
2021/07/30 04:50:18;;;;;;;31.33;13.83;;;;;;;;;;721186;191;919608;-70
2021/07/30 04:52:44;;;;;;;26.40;14.43;;;;;;;;;;721665;193;920069;-68
2021/07/30 04:55:10;;;;;;;22.43;14.23;;;;;;;;;;733240;192;914490;-68
2021/07/30 04:57:36;;;;;;;27.80;14.57;;;;;;;;;;725825;192;918691;-68
2021/07/30 05:00:01;;;;;;;27.13;15.03;;;;;;;;;;728109;191;918788;-68
2021/07/30 05:02:27;;;;;;;25.40;14.70;;;;;;;;;;733044;192;918743;-68
2021/07/30 05:04:53;;;;;;;21.60;13.23;;;;;;;;;;726535;192;919418;-67
2021/07/30 05:07:19;;;;;;;20.73;13.30;;;;;;;;;;724234;192;918622;-68
2021/07/30 05:09:45;;;;;;;24.03;13.80;;;;;;;;;;731744;193;919774;-68
2021/07/30 05:12:11;;;;;;;20.53;12.50;;;;;;;;;;726992;192;919016;-68
2021/07/30 05:14:37;;;;;;;22.27;15.07;;;;;;;;;;725752;192;919019;-68
2021/07/30 05:17:02;;;;;;;26.33;14.63;;;;;;;;;;726956;190;919895;-67
2021/07/30 05:19:28;;;;;;;31.30;16.00;;;;;;;;;;732029;191;920585;-67
2021/07/30 05:21:54;;;;;;;31.20;16.40;;;;;;;;;;725979;193;919135;-68
2021/07/30 05:24:20;;;;;;;22.37;15.50;;;;;;;;;;726220;191;918886;-66
2021/07/30 05:26:46;;;;;;;32.20;18.70;;;;;;;;;;731966;192;919920;-66
2021/07/30 05:29:12;;;;;;;28.87;17.83;;;;;;;;;;725576;193;919792;-66
2021/07/30 05:31:37;;;;;;;28.00;17.43;;;;;;;;;;727954;192;918473;-66
2021/07/30 05:34:03;;;;;;;21.93;16.10;;;;;;;;;;731213;191;915365;-66
2021/07/30 05:36:29;;;;;;;29.40;15.53;;;;;;;;;;726952;191;916012;-66
2021/07/30 05:38:55;;;;;;;26.67;17.50;;;;;;;;;;727630;191;916487;-68
2021/07/30 05:41:22;;;;;;;28.30;15.60;;;;;;;;;;728476;192;919829;-65
2021/07/30 05:43:49;;;;;;;19.90;13.60;;;;;;;;;;736210;190;919531;-66
2021/07/30 05:46:14;;;;;;;17.33;13.43;;;;;;;;;;727729;190;942055;-67
2021/07/30 05:48:39;;;;;;;20.12;12.40;;;;;;;;;;726175;191;919141;-66
2021/07/30 05:51:05;;;;;;;18.30;12.27;;;;;;;;;;731891;192;918801;-66
2021/07/30 05:53:31;;;;;;;17.50;11.73;;;;;;;;;;727604;191;969713;-66
2021/07/30 05:55:57;;;;;;;22.70;12.00;;;;;;;;;;728330;192;919349;-67
2021/07/30 05:58:22;;;;;;;16.37;12.10;;;;;;;;;;731620;191;918746;-65
2021/07/30 06:00:48;;;;;;;17.43;12.07;;;;;;;;;;727402;191;919097;-66
2021/07/30 06:03:14;;;;;;;13.60;12.07;;;;;;;;;;727073;192;919759;-67
2021/07/30 06:05:40;;;;;;;13.47;10.13;;;;;;;;;;733067;192;919346;-66
2021/07/30 06:08:06;;;;;;;17.70;10.80;;;;;;;;;;725905;192;919463;-66
2021/07/30 06:10:32;;;;;;;12.30;9.60;;;;;;;;;;729303;192;919118;-66
2021/07/30 06:12:58;;;;;;;14.97;9.43;;;;;;;;;;727980;192;919059;-67
2021/07/30 06:15:23;;;;;;;11.90;9.50;;;;;;;;;;732206;192;918827;-65
2021/07/30 06:17:49;;;;;;;12.00;9.50;;;;;;;;;;726697;191;919909;-66
2021/07/30 06:20:15;;;;;;;12.73;9.00;;;;;;;;;;727769;192;919159;-66
2021/07/30 06:22:41;;;;;;;11.18;10.00;;;;;;;;;;731560;190;1014168;-66
2021/07/30 06:25:07;;;;;;;18.43;9.20;;;;;;;;;;725736;192;945842;-65
2021/07/30 06:27:34;;;;;;;12.40;9.53;;;;;;;;;;725467;192;919416;-66
2021/07/30 06:30:00;;;;;;;11.77;8.20;;;;;;;;;;730321;191;919677;-66
2021/07/30 06:32:25;;;;;;;14.20;8.40;;;;;;;;;;725609;192;919715;-65
2021/07/30 06:34:51;;;;;;;11.20;8.03;;;;;;;;;;727030;191;919969;-66
2021/07/30 06:37:17;;;;;;;12.80;9.10;;;;;;;;;;724742;190;919218;-65
2021/07/30 06:39:43;;;;;;;12.43;8.52;;;;;;;;;;731273;191;919444;-65
2021/07/30 06:42:09;;;;;;;11.87;7.80;;;;;;;;;;726987;190;919434;-64
2021/07/30 06:44:35;;;;;;;11.20;8.10;;;;;;;;;;726344;191;919329;-64
2021/07/30 06:47:01;;;;;;;11.40;8.60;;;;;;;;;;731942;192;919082;-65
2021/07/30 06:49:26;;;;;;;10.60;8.00;;;;;;;;;;727509;191;918052;-65
2021/07/30 06:51:52;;;;;;;12.70;6.80;;;;;;;;;;728728;191;954109;-64
2021/07/30 06:54:18;;;;;;;11.67;8.27;;;;;;;;;;732138;192;919440;-65
2021/07/30 06:56:44;;;;;;;9.60;8.60;;;;;;;;;;726795;192;919396;-65
2021/07/30 06:59:10;;;;;;;11.87;7.70;;;;;;;;;;726469;192;933128;-65
2021/07/30 07:01:36;;;;;;;8.60;6.80;;;;;;;;;;726545;192;919495;-63
2021/07/30 07:04:02;;;;;;;10.23;7.00;;;;;;;;;;728205;193;918955;-64
2021/07/30 07:06:28;;;;;;;9.20;6.97;;;;;;;;;;727661;192;949226;-64
2021/07/30 07:08:53;;;;;;;10.33;6.40;;;;;;;;;;727807;192;918885;-67
2021/07/30 07:11:19;;;;;;;11.93;7.67;;;;;;;;;;730700;192;921281;-64
2021/07/30 07:13:45;;;;;;;11.57;7.97;;;;;;;;;;725873;192;920028;-64
2021/07/30 07:16:11;;;;;;;7.83;6.07;;;;;;;;;;726886;191;918897;-65
2021/07/30 07:18:37;;;;;;;8.43;6.43;;;;;;;;;;732124;192;919726;-65
2021/07/30 07:21:03;;;;;;;8.57;6.17;;;;;;;;;;726315;191;1018071;-64
2021/07/30 07:23:28;;;;;;;8.80;6.00;;;;;;;;;;725248;192;919132;-65
2021/07/30 07:25:54;;;;;;;7.17;5.90;;;;;;;;;;730798;192;919401;-65
2021/07/30 07:28:20;;;;;;;8.80;7.53;;;;;;;;;;725227;190;964749;-65
2021/07/30 07:30:47;;;;;;;8.57;5.87;;;;;;;;;;723438;191;916544;-64
2021/07/30 07:33:12;;;;;;;6.83;6.13;;;;;;;;;;727455;191;917970;-67
2021/07/30 07:35:38;;;;;;;7.47;6.00;;;;;;;;;;732156;191;916860;-66
2021/07/30 07:38:04;;;;;;;8.70;6.37;;;;;;;;;;728635;193;918400;-66
2021/07/30 07:40:29;;;;;;;9.60;6.43;;;;;;;;;;728159;192;907255;-67
2021/07/30 07:42:57;;;;;;;8.53;5.97;;;;;;;;;;731820;193;608290;-65
2021/07/30 07:45:21;;;;;;;8.40;6.37;;;;;;;;;;724004;192;921391;-65
2021/07/30 07:47:47;;;;;;;8.43;5.70;;;;;;;;;;724618;192;918997;-67
2021/07/30 07:50:13;;;;;;;8.13;6.50;;;;;;;;;;730484;193;919906;-66
2021/07/30 07:52:39;;;;;;;7.00;5.70;;;;;;;;;;727038;191;919185;-64
2021/07/30 07:55:05;;;;;;;6.13;5.07;;;;;;;;;;725611;191;918936;-65
2021/07/30 07:57:31;;;;;;;9.27;5.67;;;;;;;;;;724949;192;919330;-65
2021/07/30 07:59:57;;;;;;;7.57;6.10;;;;;;;;;;727467;192;919221;-66
2021/07/30 08:02:23;;;;;;;7.30;6.50;;;;;;;;;;731598;190;919463;-66
2021/07/30 08:04:48;;;;;;;6.60;5.60;;;;;;;;;;728901;190;919636;-65
2021/07/30 08:07:17;;;;;;;6.63;4.97;;;;;;;;;;731693;192;918889;-66
2021/07/30 08:09:40;;;;;;;8.03;5.93;;;;;;;;;;728367;191;919449;-66
2021/07/30 08:12:06;;;;;;;6.83;5.10;;;;;;;;;;726802;192;919681;-66
2021/07/30 08:14:32;;;;;;;6.93;6.27;;;;;;;;;;731656;192;919344;-65
2021/07/30 08:16:58;;;;;;;7.07;6.10;;;;;;;;;;727329;192;919990;-66
2021/07/30 08:19:24;;;;;;;9.43;5.40;;;;;;;;;;726344;192;918866;-65
2021/07/30 08:21:50;;;;;;;7.77;5.90;;;;;;;;;;726648;192;918517;-64
2021/07/30 08:24:16;;;;;;;7.50;5.53;;;;;;;;;;727721;192;919271;-67
2021/07/30 08:26:42;;;;;;;8.07;6.00;;;;;;;;;;728210;191;918918;-65
2021/07/30 08:29:08;;;;;;;11.40;6.53;;;;;;;;;;726661;191;1021446;-64
2021/07/30 08:31:33;;;;;;;7.10;5.33;;;;;;;;;;731076;190;1020712;-68
2021/07/30 08:33:59;;;;;;;9.33;5.33;;;;;;;;;;728272;191;919529;-66
2021/07/30 08:36:25;;;;;;;7.37;6.20;;;;;;;;;;726710;191;919717;-66
2021/07/30 08:38:51;;;;;;;8.10;5.40;;;;;;;;;;730226;191;918932;-65
2021/07/30 08:41:18;;;;;;;8.63;6.03;;;;;;;;;;726410;191;920198;-65
2021/07/30 08:43:44;;;;;;;7.30;5.63;;;;;;;;;;726095;193;920010;-65
2021/07/30 08:46:10;;;;;;;7.80;5.77;;;;;;;;;;732096;192;919133;-65
2021/07/30 08:48:36;;;;;;;8.63;5.93;;;;;;;;;;727921;191;919335;-67
2021/07/30 08:51:02;;;;;;;7.93;5.87;;;;;;;;;;728037;191;920025;-65
2021/07/30 08:53:28;;;;;;;6.00;5.40;;;;;;;;;;726540;191;919412;-66
2021/07/30 08:55:53;;;;;;;7.47;6.20;;;;;;;;;;730492;191;919454;-64
2021/07/30 08:58:19;;;;;;;13.23;6.90;;;;;;;;;;725041;191;919500;-68
2021/07/30 09:00:45;;;;;;;7.80;5.20;;;;;;;;;;728683;190;918521;-66
2021/07/30 09:03:11;;;;;;;7.47;4.80;;;;;;;;;;730895;191;919550;-65
2021/07/30 09:05:37;;;;;;;7.10;6.10;;;;;;;;;;729820;190;919308;-65
2021/07/30 09:08:03;;;;;;;8.93;5.20;;;;;;;;;;730105;192;927173;-66
2021/07/30 09:10:31;;;;;;;8.90;5.87;;;;;;;;;;731733;192;919269;-66
2021/07/30 09:13:02;;;;;;;10.10;5.90;;;;;;;;;;724909;192;919550;-65
2021/07/30 09:15:28;;;;;;;7.40;6.00;;;;;;;;;;730181;191;919932;-66
2021/07/30 09:17:54;;;;;;;9.00;5.93;;;;;;;;;;727582;192;919831;-66
2021/07/30 09:20:20;;;;;;;8.90;5.10;;;;;;;;;;732359;192;919532;-67
2021/07/30 09:22:48;;;;;;;10.13;7.10;;;;;;;;;;725206;192;918835;-65
2021/07/30 09:25:13;;;;;;;6.50;5.33;;;;;;;;;;725790;192;919442;-67
2021/07/30 09:27:39;;;;;;;6.63;5.30;;;;;;;;;;731383;190;919506;-65
2021/07/30 09:30:12;;;;;;;6.67;5.63;;;;;;;;;;729273;191;930619;-66
2021/07/30 09:32:38;;;;;;;8.40;5.13;;;;;;;;;;727065;192;919591;-66
2021/07/30 09:35:04;;;;;;;11.30;5.73;;;;;;;;;;726374;191;918081;-68
2021/07/30 09:37:30;;;;;;;6.03;5.40;;;;;;;;;;732337;192;919373;-67
2021/07/30 09:39:56;;;;;;;7.80;5.43;;;;;;;;;;726974;191;919262;-66
2021/07/30 09:42:36;;;;;;;7.72;5.60;;;;;;;;;;725989;191;1021029;-66
2021/07/30 09:45:04;;;;;;;12.30;5.53;;;;;;;;;;727784;189;919234;-69
2021/07/30 09:47:29;;;;;;;11.93;5.53;;;;;;;;;;730244;193;919727;-67
2021/07/30 09:49:55;;;;;;;5.90;4.87;;;;;;;;;;725208;191;919323;-68
2021/07/30 09:52:21;;;;;;;5.30;4.50;;;;;;;;;;727794;191;919108;-65
2021/07/30 09:54:47;;;;;;;7.87;6.03;;;;;;;;;;726664;190;918284;-66
2021/07/30 09:57:13;;;;;;;9.10;4.70;;;;;;;;;;730979;191;919001;-65
2021/07/30 09:59:40;;;;;;;6.27;5.20;;;;;;;;;;726443;191;917641;-68
2021/07/30 10:02:05;;;;;;;5.97;4.70;;;;;;;;;;726610;193;939657;-67
2021/07/30 10:04:32;;;;;;;5.80;4.97;;;;;;;;;;731287;191;919662;-66
2021/07/30 10:06:57;;;;;;;7.47;5.50;;;;;;;;;;726404;190;920087;-67
2021/07/30 10:09:23;;;;;;;8.37;4.73;;;;;;;;;;727060;191;920421;-67
2021/07/30 10:11:49;;;;;;;8.87;4.90;;;;;;;;;;730540;192;918974;-67
2021/07/30 10:14:17;;;;;;;6.90;4.70;;;;;;;;;;726595;190;919321;-68
2021/07/30 10:16:40;;;;;;;6.40;4.77;;;;;;;;;;724564;190;920714;-66
2021/07/30 10:19:06;;;;;;;5.87;4.80;;;;;;;;;;724607;191;916346;-67
2021/07/30 10:21:34;;;;;;;5.13;4.47;;;;;;;;;;740726;188;915631;-67
2021/07/30 10:23:58;;;;;;;6.60;5.00;;;;;;;;;;729028;191;916430;-67
2021/07/30 10:26:24;;;;;;;6.07;4.80;;;;;;;;;;729568;190;916485;-65
2021/07/30 10:28:50;;;;;;;6.60;5.27;;;;;;;;;;732699;192;916336;-66
2021/07/30 10:31:15;;;;;;;7.00;6.03;;;;;;;;;;728780;191;919639;-68
2021/07/30 10:33:44;;;;;;;6.97;5.43;;;;;;;;;;729196;191;919449;-66
2021/07/30 10:36:12;;;;;;;5.80;4.33;;;;;;;;;;730408;192;919545;-67
2021/07/30 10:38:38;;;;;;;8.20;5.03;;;;;;;;;;731643;190;919073;-67
2021/07/30 10:41:14;;;;;;;12.40;7.60;;;;;;;;;;723220;192;1022682;-66
2021/07/30 10:43:59;;;;;;;7.33;4.80;;;;;;;;;;725542;192;940752;-67
2021/07/30 10:46:25;;;;;;;5.45;4.70;;;;;;;;;;729573;191;919801;-68
2021/07/30 10:48:53;;;;;;;8.47;5.47;;;;;;;;;;726229;192;1020863;-67
2021/07/30 10:51:28;;;;;;;7.33;4.60;;;;;;;;;;734619;190;919591;-67
2021/07/30 10:53:54;;;;;;;6.73;4.50;;;;;;;;;;727575;192;919836;-68
2021/07/30 10:56:35;;;;;;;6.97;4.70;;;;;;;;;;727268;192;919442;-66
2021/07/30 10:59:04;;;;;;;6.30;4.93;;;;;;;;;;723864;193;918484;-71
2021/07/30 11:01:44;;;;;;;6.83;5.03;;;;;;;;;;725239;191;919724;-68
2021/07/30 11:04:10;;;;;;;6.57;5.63;;;;;;;;;;724053;192;919439;-68
2021/07/30 11:06:52;;;;;;;6.53;4.90;;;;;;;;;;738002;190;920858;-69
2021/07/30 11:09:18;;;;;;;7.87;5.47;;;;;;;;;;727312;191;918915;-69
2021/07/30 11:11:45;;;;;;;6.53;4.93;;;;;;;;;;725921;192;922111;-72
2021/07/30 11:14:28;;;;;;;7.93;5.30;;;;;;;;;;729655;191;879743;-69
2021/07/30 11:16:53;;;;;;;11.20;5.40;;;;;;;;;;725569;193;920023;-69
2021/07/30 11:19:19;;;;;;;12.00;6.50;;;;;;;;;;730500;192;917473;-70
2021/07/30 11:21:45;;;;;;;7.40;4.93;;;;;;;;;;728787;192;919445;-70
2021/07/30 11:24:11;;;;;;;6.43;5.43;;;;;;;;;;725825;192;919262;-68
2021/07/30 11:26:37;;;;;;;10.03;6.50;;;;;;;;;;730400;193;917878;-69
2021/07/30 11:29:03;;;;;;;9.93;6.43;;;;;;;;;;727651;193;913308;-69
2021/07/30 11:31:28;;;;;;;8.40;5.87;;;;;;;;;;726767;190;915561;-69
2021/07/30 11:33:54;;;;;;;6.90;5.27;;;;;;;;;;730874;191;919015;-71
2021/07/30 11:36:20;;;;;;;6.97;5.03;;;;;;;;;;726568;191;919234;-70
2021/07/30 11:38:47;;;;;;;12.50;6.27;;;;;;;;;;726027;192;919491;-70
2021/07/30 11:41:14;;;;;;;7.40;5.10;;;;;;;;;;728538;192;1000368;-69
2021/07/30 11:43:38;;;;;;;7.50;5.03;;;;;;;;;;733552;192;918978;-67
2021/07/30 11:46:10;;;;;;;8.20;5.70;;;;;;;;;;726718;190;918804;-67
2021/07/30 11:48:36;;;;;;;7.65;5.35;;;;;;;;;;728459;190;919104;-69
2021/07/30 11:51:02;;;;;;;7.97;4.90;;;;;;;;;;731892;191;1021179;-67
2021/07/30 11:53:28;;;;;;;7.70;4.73;;;;;;;;;;727594;192;921474;-67
2021/07/30 11:55:54;;;;;;;6.43;4.63;;;;;;;;;;727922;192;919228;-68
2021/07/30 11:58:20;;;;;;;8.00;5.07;;;;;;;;;;729363;192;919277;-69
2021/07/30 12:00:46;;;;;;;6.80;5.07;;;;;;;;;;732244;191;919537;-67
2021/07/30 12:03:14;;;;;;;7.40;5.30;;;;;;;;;;727380;191;919339;-68
2021/07/30 12:05:40;;;;;;;7.63;5.00;;;;;;;;;;727952;191;919861;-67
2021/07/30 12:08:07;;;;;;;6.33;4.90;;;;;;;;;;730105;192;919093;-68
2021/07/30 12:10:33;;;;;;;6.87;4.53;;;;;;;;;;727925;190;918849;-67
2021/07/30 12:12:59;;;;;;;5.53;4.40;;;;;;;;;;726466;191;920507;-67
2021/07/30 12:15:24;;;;;;;5.43;4.70;;;;;;;;;;725036;193;920224;-67
2021/07/30 12:17:50;;;;;;;6.63;4.93;;;;;;;;;;739624;188;918857;-68
2021/07/30 12:20:16;;;;;;;5.07;4.33;;;;;;;;;;727036;192;919195;-67
2021/07/30 12:22:43;;;;;;;6.20;4.97;;;;;;;;;;726088;192;944873;-67
2021/07/30 12:25:09;;;;;;;5.10;4.47;;;;;;;;;;732092;191;918105;-68
2021/07/30 12:27:35;;;;;;;7.23;5.40;;;;;;;;;;726269;191;918190;-69
2021/07/30 12:30:01;;;;;;;7.40;4.90;;;;;;;;;;726283;191;918040;-68
2021/07/30 12:32:27;;;;;;;7.13;4.70;;;;;;;;;;730857;192;918780;-68
2021/07/30 12:34:53;;;;;;;8.73;5.27;;;;;;;;;;728679;192;919154;-68
2021/07/30 12:37:18;;;;;;;5.83;4.43;;;;;;;;;;727866;192;919276;-67
2021/07/30 12:39:45;;;;;;;6.15;4.25;;;;;;;;;;732922;190;919999;-67
2021/07/30 12:42:10;;;;;;;8.27;4.87;;;;;;;;;;725849;192;919265;-66
2021/07/30 12:44:36;;;;;;;8.40;5.47;;;;;;;;;;721868;192;919355;-68
2021/07/30 12:47:01;;;;;;;6.10;4.60;;;;;;;;;;727632;191;919606;-67
2021/07/30 12:49:27;;;;;;;6.23;5.30;;;;;;;;;;732315;191;918985;-66
2021/07/30 12:51:53;;;;;;;4.70;4.20;;;;;;;;;;728092;192;1021815;-66
2021/07/30 12:54:19;;;;;;;9.40;4.63;;;;;;;;;;727926;190;923170;-67
2021/07/30 12:56:51;;;;;;;8.90;4.70;;;;;;;;;;732772;191;919079;-68
2021/07/30 12:59:17;;;;;;;6.23;4.20;;;;;;;;;;728829;192;920232;-67
2021/07/30 13:01:43;;;;;;;6.70;5.10;;;;;;;;;;726737;192;918799;-68
2021/07/30 13:04:10;;;;;;;6.87;4.70;;;;;;;;;;727033;191;927929;-67
2021/07/30 13:06:34;;;;;;;7.23;5.23;;;;;;;;;;733442;191;918940;-67
2021/07/30 13:09:00;;;;;;;4.80;4.10;;;;;;;;;;727515;192;919218;-66
2021/07/30 13:11:26;;;;;;;6.07;4.73;;;;;;;;;;725908;190;920788;-68
2021/07/30 13:13:52;;;;;;;7.10;4.80;;;;;;;;;;731366;192;918323;-69
2021/07/30 13:16:18;;;;;;;8.70;5.47;;;;;;;;;;724819;190;921892;-67
2021/07/30 13:18:43;;;;;;;10.97;5.30;;;;;;;;;;726363;192;919812;-68
2021/07/30 13:21:09;;;;;;;8.50;4.63;;;;;;;;;;731636;191;918756;-67
2021/07/30 13:23:35;;;;;;;6.20;4.87;;;;;;;;;;727195;192;921624;-69
2021/07/30 13:26:01;;;;;;;5.77;4.43;;;;;;;;;;727741;192;920948;-69
2021/07/30 13:28:27;;;;;;;6.80;5.00;;;;;;;;;;727344;192;920579;-66
2021/07/30 13:30:55;;;;;;;9.03;5.10;;;;;;;;;;721646;193;1007831;-66
2021/07/30 13:33:19;;;;;;;9.43;5.33;;;;;;;;;;726292;191;917742;-68
2021/07/30 13:35:45;;;;;;;6.30;4.87;;;;;;;;;;726946;192;917711;-66
2021/07/30 13:38:11;;;;;;;7.07;4.70;;;;;;;;;;734387;192;920216;-66
2021/07/30 13:40:37;;;;;;;11.03;5.03;;;;;;;;;;725427;192;920768;-66
2021/07/30 13:43:06;;;;;;;8.50;5.03;;;;;;;;;;724856;191;939051;-67
2021/07/30 13:45:28;;;;;;;6.23;5.07;;;;;;;;;;730454;192;917792;-67
2021/07/30 13:47:54;;;;;;;8.03;5.57;;;;;;;;;;726573;193;919761;-67
2021/07/30 13:50:20;;;;;;;10.10;5.43;;;;;;;;;;726578;192;920247;-68
2021/07/30 13:52:46;;;;;;;8.03;4.17;;;;;;;;;;730856;192;918799;-68
2021/07/30 13:55:12;;;;;;;5.78;4.72;;;;;;;;;;726770;191;922210;-68
2021/07/30 13:57:37;;;;;;;11.73;4.80;;;;;;;;;;726912;190;916310;-68
2021/07/30 14:00:04;;;;;;;6.22;4.65;;;;;;;;;;727614;191;922849;-68
2021/07/30 14:02:30;;;;;;;6.70;4.87;;;;;;;;;;732079;190;1038323;-68
2021/07/30 14:04:56;;;;;;;6.10;4.50;;;;;;;;;;728713;191;916588;-68
2021/07/30 14:07:22;;;;;;;6.40;4.80;;;;;;;;;;729141;190;915998;-69
2021/07/30 14:09:48;;;;;;;6.73;4.97;;;;;;;;;;733163;191;914804;-68
2021/07/30 14:12:14;;;;;;;10.03;5.40;;;;;;;;;;730782;191;638433;-68
2021/07/30 14:14:39;;;;;;;5.80;4.77;;;;;;;;;;726674;191;918832;-68